Time;durP1;ratioP1;P1;durP2;ratioP2;P2;SDS_P1;SDS_P2;PMS_P1;PMS_P2;Temp;Humidity;BMP_temperature;BMP_pressure;BME280_temperature;BME280_humidity;BME280_pressure;Samples;Min_cycle;Max_cycle;Signal;HPM_P1;HPM_P2
2022/08/24 00:00:47;;;;;;;3.00;2.63;;;24.50;60.70;;;;;;10475309;28;20479;-51
2022/08/24 00:05:49;;;;;;;3.80;2.85;;;24.60;60.80;;;;;;10491952;28;20029;-50
2022/08/24 00:10:50;;;;;;;3.28;2.90;;;24.60;60.70;;;;;;10474041;28;20064;-51
2022/08/24 00:15:51;;;;;;;3.40;3.08;;;24.60;60.80;;;;;;10491786;28;20498;-50
2022/08/24 00:20:52;;;;;;;4.05;2.90;;;24.60;60.80;;;;;;10473388;28;20028;-49
2022/08/24 00:25:53;;;;;;;3.17;2.88;;;24.60;60.80;;;;;;10491507;28;20082;-50
2022/08/24 00:30:53;;;;;;;4.13;2.97;;;24.50;60.70;;;;;;10509280;28;20107;-46
2022/08/24 00:35:54;;;;;;;4.32;3.13;;;24.50;60.70;;;;;;10499888;28;20028;-47
2022/08/24 00:40:56;;;;;;;3.13;2.78;;;24.50;60.70;;;;;;10490664;28;20411;-51
2022/08/24 00:46:35;;;;;;;4.32;2.85;;;24.60;60.80;;;;;;10490257;28;20035;-48
2022/08/24 00:51:44;;;;;;;4.17;2.97;;;24.60;60.80;;;;;;10475262;28;20032;-51
2022/08/24 00:57:03;;;;;;;3.50;2.95;;;24.50;60.80;;;;;;10490629;28;20100;-51
2022/08/24 01:02:09;;;;;;;3.93;2.50;;;24.50;60.70;;;;;;10490384;28;20452;-51
2022/08/24 01:07:10;;;;;;;3.30;2.88;;;24.50;60.80;;;;;;10472202;28;20092;-51
2022/08/24 01:12:11;;;;;;;3.95;2.95;;;24.50;60.70;;;;;;10489391;28;20054;-50
2022/08/24 01:22:58;;;;;;;4.28;3.20;;;24.50;60.70;;;;;;10474306;28;20036;-51
2022/08/24 01:28:05;;;;;;;3.35;2.92;;;24.50;60.70;;;;;;10466635;28;20547;-49
2022/08/24 01:33:09;;;;;;;3.40;2.90;;;24.50;60.80;;;;;;10521538;28;20040;-50
2022/08/24 01:38:11;;;;;;;3.45;3.05;;;24.50;60.80;;;;;;10488469;28;20534;-50
2022/08/24 01:43:13;;;;;;;3.70;2.85;;;24.50;60.80;;;;;;10487928;28;20036;-51
2022/08/24 01:48:14;;;;;;;3.15;2.80;;;24.50;60.80;;;;;;10488321;28;20273;-50
2022/08/24 01:53:16;;;;;;;3.70;3.33;;;24.50;60.80;;;;;;10488604;28;20049;-51
2022/08/24 01:58:17;;;;;;;3.38;2.97;;;24.50;60.80;;;;;;10488079;28;20036;-51
2022/08/24 02:03:19;;;;;;;3.83;3.08;;;24.50;60.80;;;;;;10487443;28;20487;-52
2022/08/24 02:08:19;;;;;;;3.20;2.90;;;24.50;60.70;;;;;;10469421;28;20116;-51
2022/08/24 02:13:20;;;;;;;3.75;3.03;;;24.50;60.70;;;;;;10488011;28;20024;-50
2022/08/24 02:18:21;;;;;;;3.72;2.80;;;24.50;60.70;;;;;;10488325;28;20036;-49
2022/08/24 02:23:21;;;;;;;4.53;3.53;;;24.50;60.70;;;;;;10488110;28;20040;-51
2022/08/24 02:28:22;;;;;;;3.30;3.00;;;24.50;60.70;;;;;;10503427;28;20107;-51
2022/08/24 02:33:24;;;;;;;4.10;3.00;;;24.40;60.60;;;;;;10518404;28;20103;-51
2022/08/24 02:38:25;;;;;;;3.58;3.05;;;24.50;60.70;;;;;;10488507;28;20113;-52
2022/08/24 02:43:26;;;;;;;3.60;2.90;;;24.40;60.70;;;;;;10487661;28;20113;-51
2022/08/24 02:48:27;;;;;;;3.80;3.35;;;24.40;60.60;;;;;;10487511;28;20024;-50
2022/08/24 02:53:27;;;;;;;3.50;3.20;;;24.50;60.60;;;;;;10487163;28;20056;-52
2022/08/24 02:58:28;;;;;;;3.90;3.17;;;24.40;60.60;;;;;;10487475;28;20044;-52
2022/08/24 03:03:29;;;;;;;3.40;3.10;;;24.40;61.20;;;;;;10468886;28;20494;-50
2022/08/24 03:08:30;;;;;;;3.97;3.60;;;24.50;60.70;;;;;;10486684;28;20483;-48
2022/08/24 03:13:31;;;;;;;3.22;2.92;;;24.40;60.60;;;;;;10486541;28;20521;-52
2022/08/24 03:18:33;;;;;;;3.50;2.97;;;24.40;60.60;;;;;;10492326;28;20434;-50
2022/08/24 03:23:34;;;;;;;3.25;2.95;;;24.40;60.50;;;;;;10475727;28;20499;-49
2022/08/24 03:28:35;;;;;;;3.08;2.75;;;24.40;60.50;;;;;;10510545;28;20114;-47
2022/08/24 03:33:35;;;;;;;3.90;3.50;;;24.40;60.60;;;;;;10521876;28;20617;-51
2022/08/24 03:38:36;;;;;;;2.95;2.75;;;24.40;60.50;;;;;;10493889;28;20059;-52
2022/08/24 03:43:45;;;;;;;3.75;3.17;;;24.40;60.50;;;;;;10492965;28;20081;-52
2022/08/24 03:48:47;;;;;;;3.90;3.50;;;24.40;60.50;;;;;;10492864;28;20399;-51
2022/08/24 03:53:49;;;;;;;3.78;3.33;;;24.40;60.50;;;;;;10493541;28;20482;-48
2022/08/24 03:58:50;;;;;;;3.30;3.00;;;24.40;60.50;;;;;;10492449;28;20067;-50
2022/08/24 04:03:52;;;;;;;3.70;3.40;;;24.40;60.50;;;;;;10474274;28;20480;-48
2022/08/24 04:08:55;;;;;;;3.08;2.85;;;24.40;60.50;;;;;;10474574;28;20016;-51
2022/08/24 04:13:57;;;;;;;3.30;3.00;;;24.40;60.50;;;;;;10473596;28;20025;-51
2022/08/24 04:18:58;;;;;;;3.50;3.20;;;24.30;60.40;;;;;;10473945;28;20032;-51
2022/08/24 04:23:59;;;;;;;4.10;3.35;;;24.30;60.30;;;;;;10491355;28;20107;-50
2022/08/24 04:29:01;;;;;;;3.65;3.35;;;24.30;60.30;;;;;;10491410;28;20567;-52
2022/08/24 04:34:02;;;;;;;3.42;3.15;;;24.30;60.30;;;;;;10494641;28;20127;-51
2022/08/24 04:39:04;;;;;;;3.85;3.30;;;24.30;60.40;;;;;;10492841;28;20047;-50
2022/08/24 04:44:05;;;;;;;3.28;2.97;;;24.30;60.30;;;;;;10458479;28;20679;-51
2022/08/24 04:49:07;;;;;;;3.65;3.05;;;24.30;60.40;;;;;;10492848;28;20031;-51
2022/08/24 04:54:07;;;;;;;3.20;3.00;;;24.30;60.30;;;;;;10474297;28;20036;-51
2022/08/24 04:59:08;;;;;;;3.60;3.30;;;24.30;60.30;;;;;;10492380;28;20032;-52
2022/08/24 05:04:09;;;;;;;3.17;2.88;;;24.30;60.30;;;;;;10473997;28;20115;-50
2022/08/24 05:09:11;;;;;;;3.20;2.67;;;24.30;60.30;;;;;;10491748;28;20035;-51
2022/08/24 05:14:12;;;;;;;5.32;3.15;;;24.30;60.30;;;;;;10473760;28;20081;-52
2022/08/24 05:19:12;;;;;;;4.53;3.72;;;24.30;60.30;;;;;;10457297;28;20036;-51
2022/08/24 05:24:13;;;;;;;3.35;3.05;;;24.30;60.30;;;;;;10456668;28;20027;-50
2022/08/24 05:29:14;;;;;;;3.83;3.40;;;24.30;60.30;;;;;;10495922;28;20024;-51
2022/08/24 05:34:15;;;;;;;3.88;3.58;;;24.30;60.30;;;;;;10532846;28;20111;-51
2022/08/24 05:39:15;;;;;;;3.45;3.15;;;24.30;60.30;;;;;;10514210;28;20040;-50
2022/08/24 05:44:17;;;;;;;3.25;2.95;;;24.20;60.30;;;;;;10514140;28;20048;-50
2022/08/24 05:49:17;;;;;;;3.63;3.03;;;24.30;60.30;;;;;;10532303;28;20474;-51
2022/08/24 05:54:19;;;;;;;3.53;3.22;;;24.30;60.40;;;;;;10532668;28;20113;-51
2022/08/24 05:59:21;;;;;;;3.53;3.20;;;24.20;60.30;;;;;;10531928;28;20085;-50
2022/08/24 06:04:22;;;;;;;3.15;2.80;;;24.20;60.40;;;;;;10531876;28;20036;-51
2022/08/24 06:09:22;;;;;;;3.97;3.58;;;24.30;60.40;;;;;;10513578;28;20119;-52
2022/08/24 06:14:23;;;;;;;4.18;3.55;;;24.30;60.40;;;;;;10531621;28;20107;-52
2022/08/24 06:19:25;;;;;;;3.70;3.40;;;24.30;60.50;;;;;;10531208;28;20036;-51
2022/08/24 06:29:48;;;;;;;3.05;2.75;;;24.20;60.50;;;;;;10505494;28;20491;-51
2022/08/24 06:34:49;;;;;;;3.83;3.42;;;24.30;60.50;;;;;;10512626;28;20032;-51
2022/08/24 06:39:50;;;;;;;3.70;3.40;;;24.20;60.50;;;;;;10531214;28;20137;-52
2022/08/24 06:44:51;;;;;;;3.88;3.08;;;24.20;60.50;;;;;;10513316;28;20103;-51
2022/08/24 06:49:52;;;;;;;3.25;2.95;;;24.20;60.50;;;;;;10531004;28;20025;-52
2022/08/24 06:54:53;;;;;;;3.42;3.13;;;24.20;60.50;;;;;;10521170;28;20467;-52
2022/08/24 06:59:54;;;;;;;3.75;3.45;;;24.30;60.50;;;;;;10538568;28;20032;-53
2022/08/24 07:04:54;;;;;;;3.72;3.42;;;24.20;60.50;;;;;;10538744;28;20140;-52
2022/08/24 07:09:55;;;;;;;3.67;3.38;;;24.30;60.60;;;;;;10538556;28;20369;-52
2022/08/24 07:14:56;;;;;;;5.05;3.42;;;24.30;60.60;;;;;;10537789;28;20032;-52
2022/08/24 07:19:56;;;;;;;4.10;3.70;;;24.30;60.60;;;;;;10537998;28;20028;-52
2022/08/24 07:24:57;;;;;;;4.15;3.08;;;24.30;60.60;;;;;;10537599;28;20487;-52
2022/08/24 07:29:58;;;;;;;4.93;3.97;;;24.30;60.60;;;;;;10508953;28;20115;-52
2022/08/24 07:34:59;;;;;;;3.63;3.33;;;24.30;60.50;;;;;;10502035;28;20107;-53
2022/08/24 07:40:00;;;;;;;4.30;3.90;;;24.30;60.50;;;;;;10537100;28;20051;-53
2022/08/24 07:45:01;;;;;;;4.35;3.78;;;24.30;60.60;;;;;;10536780;28;20119;-51
2022/08/24 07:50:02;;;;;;;4.20;3.70;;;24.30;60.70;;;;;;10536664;28;20028;-52
2022/08/24 07:55:04;;;;;;;3.38;2.95;;;24.30;60.80;;;;;;10536752;28;20027;-52
2022/08/24 08:00:11;;;;;;;4.93;4.43;;;24.30;60.70;;;;;;10518579;28;20455;-52
2022/08/24 08:05:18;;;;;;;4.18;3.78;;;24.30;61.10;;;;;;10534766;28;20155;-51
2022/08/24 08:10:22;;;;;;;4.82;4.43;;;24.40;61.20;;;;;;10517856;28;20039;-52
2022/08/24 08:15:22;;;;;;;5.78;4.25;;;24.30;61.10;;;;;;10535994;28;20489;-51
2022/08/24 08:20:23;;;;;;;3.97;3.58;;;24.40;61.20;;;;;;10517519;28;20109;-53
2022/08/24 08:25:24;;;;;;;4.50;3.70;;;24.40;61.20;;;;;;10517049;28;20101;-53
2022/08/24 08:30:24;;;;;;;4.05;3.63;;;24.40;61.10;;;;;;10503127;28;20036;-52
2022/08/24 08:35:25;;;;;;;4.43;4.03;;;24.40;61.10;;;;;;10503232;28;20061;-52
2022/08/24 08:41:15;;;;;;;5.45;3.67;;;24.50;61.10;;;;;;10534386;28;20494;-53
2022/08/24 08:46:51;;;;;;;4.30;3.90;;;24.50;61.10;;;;;;10534552;28;20036;-53
2022/08/24 08:52:23;;;;;;;4.30;3.90;;;24.50;61.20;;;;;;10534619;28;20059;-51
2022/08/24 08:57:44;;;;;;;4.47;4.07;;;24.50;61.30;;;;;;10533740;28;20394;-53
2022/08/24 09:03:12;;;;;;;4.82;3.70;;;24.50;61.20;;;;;;10516715;28;20032;-53
2022/08/24 09:08:56;;;;;;;3.88;3.58;;;24.50;61.30;;;;;;10533600;28;20448;-53
2022/08/24 09:14:30;;;;;;;3.97;3.53;;;24.50;61.10;;;;;;10516885;28;20511;-52
2022/08/24 09:19:48;;;;;;;3.97;3.10;;;24.50;61.10;;;;;;10534052;28;20135;-52
2022/08/24 09:24:52;;;;;;;4.03;3.63;;;24.60;61.20;;;;;;10533074;28;20038;-52
2022/08/24 09:30:20;;;;;;;4.53;3.38;;;24.60;61.20;;;;;;10505625;28;20024;-52
2022/08/24 09:35:49;;;;;;;3.97;3.30;;;24.60;61.20;;;;;;10517972;28;20057;-53
2022/08/24 09:41:11;;;;;;;;;;;24.60;61.20;;;;;;10515931;28;20039;-53
2022/08/24 09:46:49;;;;;;;4.25;3.03;;;24.70;61.20;;;;;;10532483;28;20379;-53
2022/08/24 09:52:31;;;;;;;6.50;3.50;;;24.60;61.10;;;;;;10532652;28;20038;-51
2022/08/24 09:57:59;;;;;;;3.35;2.85;;;24.70;61.10;;;;;;10531880;28;20028;-51
2022/08/24 10:03:37;;;;;;;3.50;3.20;;;24.70;61.10;;;;;;10532087;28;20043;-52
2022/08/24 10:09:00;;;;;;;4.28;3.47;;;24.70;61.10;;;;;;10531765;28;20437;-53
2022/08/24 10:14:01;;;;;;;3.63;2.88;;;24.70;61.00;;;;;;10513823;28;20027;-54
2022/08/24 10:19:38;;;;;;;3.28;2.97;;;24.80;61.10;;;;;;10531813;28;20028;-53
2022/08/24 10:24:43;;;;;;;3.28;2.83;;;24.80;61.00;;;;;;10515939;28;20028;-53
2022/08/24 10:30:39;;;;;;;4.15;2.78;;;24.80;61.00;;;;;;10496348;28;20022;-53
2022/08/24 10:36:24;;;;;;;4.35;3.13;;;24.80;60.90;;;;;;10494338;28;20055;-52
2022/08/24 10:41:59;;;;;;;3.45;2.85;;;24.90;60.90;;;;;;10510984;28;20116;-53
2022/08/24 10:47:10;;;;;;;3.22;2.92;;;24.90;60.80;;;;;;10539498;28;20457;-53
2022/08/24 10:52:46;;;;;;;3.08;2.78;;;24.90;60.90;;;;;;10538768;28;20085;-53
2022/08/24 10:58:29;;;;;;;3.33;3.03;;;25.00;60.80;;;;;;10520780;28;20040;-54
2022/08/24 11:03:30;;;;;;;3.65;2.78;;;25.00;60.80;;;;;;10538651;28;20028;-51
2022/08/24 11:08:32;;;;;;;3.60;3.25;;;25.00;60.90;;;;;;10520528;28;20026;-53
2022/08/24 11:13:35;;;;;;;3.40;3.00;;;25.00;60.80;;;;;;10537963;28;20036;-53
2022/08/24 11:18:49;;;;;;;2.90;2.70;;;25.00;60.90;;;;;;10503522;28;20036;-51
2022/08/24 11:23:50;;;;;;;2.55;2.35;;;25.00;60.90;;;;;;10538239;28;20043;-52
2022/08/24 11:29:04;;;;;;;3.00;2.70;;;25.00;60.80;;;;;;10518555;28;20154;-53
2022/08/24 11:34:16;;;;;;;3.25;2.58;;;25.00;60.80;;;;;;10512559;28;20421;-53
2022/08/24 11:39:34;;;;;;;2.97;2.67;;;25.00;60.80;;;;;;10519111;28;20522;-53
2022/08/24 11:45:10;;;;;;;2.50;2.25;;;25.00;61.00;;;;;;10519368;28;20036;-52
2022/08/24 11:50:29;;;;;;;2.97;2.67;;;25.00;60.90;;;;;;10521605;28;20020;-53
2022/08/24 11:55:33;;;;;;;2.73;2.47;;;25.00;60.90;;;;;;10536504;28;20032;-53
2022/08/24 12:00:45;;;;;;;2.70;2.45;;;25.10;60.80;;;;;;10536447;28;20035;-52
2022/08/24 12:06:25;;;;;;;3.92;2.53;;;25.00;61.00;;;;;;10501146;28;20417;-52
2022/08/24 12:11:25;;;;;;;3.55;2.60;;;25.00;61.00;;;;;;10506116;28;20039;-52
2022/08/24 12:16:35;;;;;;;2.50;2.30;;;25.10;61.00;;;;;;10536078;28;20024;-52
2022/08/24 12:21:39;;;;;;;2.80;2.20;;;25.10;60.90;;;;;;10535416;28;20040;-52
2022/08/24 12:26:49;;;;;;;2.97;2.50;;;25.00;60.90;;;;;;10516452;28;20565;-52
2022/08/24 12:32:01;;;;;;;2.50;2.30;;;25.00;61.10;;;;;;10493883;28;20051;-53
2022/08/24 12:37:45;;;;;;;2.72;2.42;;;25.00;61.10;;;;;;10534992;28;20024;-52
2022/08/24 12:42:59;;;;;;;3.08;2.45;;;25.00;61.70;;;;;;10534820;28;20051;-53
2022/08/24 12:48:38;;;;;;;3.17;2.60;;;25.00;61.10;;;;;;10534616;28;20118;-51
2022/08/24 12:54:00;;;;;;;2.95;2.35;;;25.00;61.20;;;;;;10534676;28;20387;-53
2022/08/24 12:59:16;;;;;;;3.00;2.70;;;25.00;61.30;;;;;;10533804;28;20039;-52
2022/08/24 13:04:53;;;;;;;2.65;2.13;;;25.00;61.20;;;;;;10533785;28;20032;-52
2022/08/24 13:09:54;;;;;;;2.70;2.47;;;25.10;61.10;;;;;;10515664;28;20694;-55
2022/08/24 13:15:27;;;;;;;2.08;1.88;;;25.10;61.00;;;;;;10534062;28;20035;-53
2022/08/24 13:20:34;;;;;;;2.50;2.22;;;25.20;61.00;;;;;;10534137;28;20039;-53
2022/08/24 13:25:50;;;;;;;2.42;2.22;;;25.20;61.00;;;;;;10533139;28;20368;-52
2022/08/24 13:31:03;;;;;;;2.83;2.47;;;25.20;60.90;;;;;;10497164;28;20082;-52
2022/08/24 13:36:37;;;;;;;2.60;2.30;;;25.20;60.90;;;;;;10524864;28;20039;-52
2022/08/24 13:42:26;;;;;;;3.42;2.42;;;25.20;60.60;;;;;;10532331;28;20048;-52
2022/08/24 13:48:01;;;;;;;3.22;2.22;;;25.20;61.00;;;;;;10516741;28;20031;-51
2022/08/24 13:53:28;;;;;;;2.42;2.15;;;25.10;61.00;;;;;;10532302;28;20024;-52
2022/08/24 13:58:42;;;;;;;3.70;2.20;;;25.10;61.10;;;;;;10515944;28;20423;-50
2022/08/24 14:03:48;;;;;;;2.22;2.00;;;25.10;61.10;;;;;;10513481;28;20055;-52
2022/08/24 14:09:30;;;;;;;2.40;1.98;;;25.00;61.00;;;;;;10532406;28;20028;-53
2022/08/24 14:15:15;;;;;;;2.88;2.53;;;25.10;61.10;;;;;;10531495;28;20020;-52
2022/08/24 14:20:54;;;;;;;2.10;1.90;;;25.10;61.10;;;;;;10515309;28;20028;-52
2022/08/24 14:26:37;;;;;;;2.90;2.60;;;25.10;61.10;;;;;;10509727;28;20131;-52
2022/08/24 14:31:37;;;;;;;2.45;2.10;;;25.00;61.10;;;;;;10462838;28;20065;-53
2022/08/24 14:37:00;;;;;;;2.75;2.40;;;25.00;61.00;;;;;;10501544;28;20515;-52
2022/08/24 14:42:31;;;;;;;2.03;1.85;;;25.10;60.90;;;;;;10489224;28;20037;-52
2022/08/24 14:47:48;;;;;;;2.17;1.98;;;25.10;61.00;;;;;;10490165;28;20043;-52
2022/08/24 14:53:17;;;;;;;1.92;1.77;;;25.10;61.00;;;;;;10489233;28;20032;-52
2022/08/24 14:58:30;;;;;;;2.20;2.00;;;25.10;61.00;;;;;;10471110;28;20025;-52
2022/08/24 15:04:10;;;;;;;2.55;2.10;;;25.10;61.00;;;;;;10471296;28;20040;-52
2022/08/24 15:09:27;;;;;;;2.45;2.15;;;25.10;60.90;;;;;;10471060;28;20081;-52
2022/08/24 15:14:50;;;;;;;2.08;1.88;;;25.10;60.80;;;;;;10475955;28;20085;-52
2022/08/24 15:20:21;;;;;;;2.83;2.45;;;25.10;60.70;;;;;;10496396;28;20648;-52
2022/08/24 15:25:43;;;;;;;2.33;1.90;;;25.10;60.70;;;;;;10480114;28;20428;-52
2022/08/24 15:31:18;;;;;;;4.15;2.00;;;25.10;60.40;;;;;;10513269;28;20111;-51
2022/08/24 15:36:19;;;;;;;2.63;2.13;;;25.10;60.50;;;;;;10502037;28;20036;-53
2022/08/24 15:41:36;;;;;;;2.83;2.10;;;25.10;60.80;;;;;;10495583;28;20098;-52
2022/08/24 15:46:51;;;;;;;2.63;2.05;;;25.10;60.50;;;;;;10494778;28;20107;-52
2022/08/24 15:51:59;;;;;;;2.33;2.13;;;25.10;60.70;;;;;;10494169;28;20364;-52
2022/08/24 15:57:16;;;;;;;2.10;1.88;;;25.10;60.70;;;;;;10494776;28;20036;-49
2022/08/24 16:02:31;;;;;;;2.35;2.10;;;25.10;60.50;;;;;;10494427;28;20032;-53
2022/08/24 16:08:01;;;;;;;2.92;2.08;;;25.20;60.50;;;;;;10493395;28;20802;-51
2022/08/24 16:13:17;;;;;;;;;;;25.10;60.50;;;;;;10494667;28;20067;-53
2022/08/24 16:18:19;;;;;;;1.88;1.77;;;25.20;60.50;;;;;;10477213;28;19919;-52
2022/08/24 16:23:30;;;;;;;1.95;1.73;;;25.10;60.30;;;;;;10492712;28;20162;-53
2022/08/24 16:28:35;;;;;;;3.83;2.17;;;25.10;60.50;;;;;;10508718;28;20035;-52
2022/08/24 16:33:46;;;;;;;1.90;1.70;;;25.20;60.30;;;;;;10522024;28;20036;-52
2022/08/24 16:38:50;;;;;;;2.60;1.92;;;25.20;60.50;;;;;;10493108;28;20049;-52
2022/08/24 16:43:51;;;;;;;2.20;2.00;;;25.20;60.60;;;;;;10493223;28;20138;-51
2022/08/24 16:48:53;;;;;;;2.28;2.05;;;25.20;60.60;;;;;;10492930;28;20024;-52
2022/08/24 16:53:54;;;;;;;1.88;1.75;;;25.20;60.60;;;;;;10492389;28;20021;-52
2022/08/24 16:58:55;;;;;;;2.20;1.92;;;25.20;60.60;;;;;;10492251;28;20047;-53
2022/08/24 17:03:55;;;;;;;3.28;2.10;;;25.20;60.50;;;;;;10473961;28;20028;-52
2022/08/24 17:08:57;;;;;;;2.58;2.10;;;25.20;60.60;;;;;;10491898;28;20119;-51
2022/08/24 17:13:58;;;;;;;2.70;2.22;;;25.20;60.50;;;;;;10473658;28;20028;-52
2022/08/24 17:19:00;;;;;;;2.05;1.85;;;25.20;60.50;;;;;;10490368;28;20032;-53
2022/08/24 17:24:01;;;;;;;2.40;2.00;;;25.20;60.50;;;;;;10473898;28;20107;-51
2022/08/24 17:29:08;;;;;;;2.10;1.90;;;25.20;60.50;;;;;;10511788;28;20044;-52
2022/08/24 17:34:08;;;;;;;2.10;1.90;;;25.20;60.50;;;;;;10513882;28;20517;-51
2022/08/24 17:39:12;;;;;;;1.85;1.60;;;25.20;60.50;;;;;;10490439;28;20105;-52
2022/08/24 17:44:19;;;;;;;2.03;1.83;;;25.20;60.50;;;;;;10489163;28;20033;-51
2022/08/24 17:49:20;;;;;;;1.83;1.50;;;25.20;60.40;;;;;;10490962;28;20058;-53
2022/08/24 17:54:21;;;;;;;2.17;1.77;;;25.20;60.40;;;;;;10490668;28;20075;-53
2022/08/24 17:59:30;;;;;;;2.45;2.10;;;25.20;60.50;;;;;;10489046;28;20031;-53
2022/08/24 18:04:33;;;;;;;2.58;1.90;;;25.20;61.10;;;;;;10490739;28;20112;-51
2022/08/24 18:09:40;;;;;;;2.13;1.77;;;25.20;60.50;;;;;;10488966;28;20028;-53
2022/08/24 18:14:42;;;;;;;2.90;1.98;;;25.20;60.50;;;;;;10488868;28;20028;-52
2022/08/24 18:19:44;;;;;;;2.40;2.20;;;25.20;60.40;;;;;;10489211;28;20206;-53
2022/08/24 18:24:45;;;;;;;1.88;1.77;;;25.20;60.50;;;;;;10488534;28;20064;-51
2022/08/24 18:29:46;;;;;;;2.30;2.05;;;25.30;60.60;;;;;;10516720;28;20052;-52
2022/08/24 18:34:47;;;;;;;1.95;1.63;;;25.30;60.60;;;;;;10508373;28;20029;-51
2022/08/24 18:39:48;;;;;;;2.40;1.77;;;25.20;60.50;;;;;;10489146;28;20515;-53
2022/08/24 18:44:49;;;;;;;1.70;1.60;;;25.30;60.60;;;;;;10489170;28;20036;-49
2022/08/24 18:49:50;;;;;;;2.47;1.80;;;25.20;60.50;;;;;;10478206;28;20028;-52
2022/08/24 18:54:51;;;;;;;2.42;1.95;;;25.20;60.50;;;;;;10496961;28;20025;-50
2022/08/24 18:59:52;;;;;;;2.22;1.67;;;25.20;60.50;;;;;;10495682;28;20036;-52
2022/08/24 19:04:54;;;;;;;1.58;1.38;;;25.20;60.50;;;;;;10497145;28;20375;-52
2022/08/24 19:09:55;;;;;;;2.15;1.85;;;25.30;60.60;;;;;;10496585;28;20033;-52
2022/08/24 19:14:59;;;;;;;2.58;1.75;;;25.30;60.50;;;;;;10494637;28;20090;-52
2022/08/24 19:19:59;;;;;;;2.15;1.80;;;25.20;60.50;;;;;;10493773;28;20479;-52
2022/08/24 19:25:03;;;;;;;2.05;1.67;;;25.30;60.50;;;;;;10495234;28;20036;-52
2022/08/24 19:30:04;;;;;;;1.75;1.63;;;25.30;60.50;;;;;;10523723;28;20054;-52
2022/08/24 19:35:12;;;;;;;2.55;1.85;;;25.30;60.50;;;;;;10510380;28;20058;-50
2022/08/24 19:40:13;;;;;;;1.80;1.67;;;25.30;60.50;;;;;;10492252;28;20048;-51
2022/08/24 19:50:39;;;;;;;2.00;1.80;;;25.30;60.50;;;;;;10492054;28;20116;-51
2022/08/24 19:55:40;;;;;;;2.80;2.13;;;25.30;60.50;;;;;;10491732;28;20028;-52
2022/08/24 20:00:46;;;;;;;2.03;1.83;;;25.30;60.50;;;;;;10474999;28;20064;-52
2022/08/24 20:05:47;;;;;;;2.45;2.25;;;25.30;60.50;;;;;;10492694;28;20349;-52
2022/08/24 20:10:48;;;;;;;2.60;2.10;;;25.40;60.50;;;;;;10491496;28;20036;-52
2022/08/24 20:15:49;;;;;;;2.22;1.80;;;25.30;60.50;;;;;;10492139;28;20075;-52
2022/08/24 20:20:50;;;;;;;2.03;1.75;;;25.30;60.60;;;;;;10492490;28;20095;-51
2022/08/24 20:25:50;;;;;;;3.22;2.10;;;25.40;60.60;;;;;;10491615;28;20040;-51
2022/08/24 20:30:51;;;;;;;2.08;1.55;;;25.30;60.60;;;;;;10525892;28;20024;-50
2022/08/24 20:35:53;;;;;;;2.22;1.83;;;25.40;60.60;;;;;;10501241;28;20021;-51
2022/08/24 20:40:54;;;;;;;2.10;1.90;;;25.30;60.60;;;;;;10489722;28;20060;-52
2022/08/24 20:45:55;;;;;;;2.30;1.90;;;25.30;60.80;;;;;;10491599;28;20474;-51
2022/08/24 20:50:58;;;;;;;2.20;1.83;;;25.40;60.90;;;;;;10490744;28;20033;-52
2022/08/24 20:56:06;;;;;;;2.53;2.25;;;25.30;60.80;;;;;;10489246;28;20060;-52
2022/08/24 21:01:07;;;;;;;2.88;2.10;;;25.30;60.70;;;;;;10489131;28;20119;-51
2022/08/24 21:06:12;;;;;;;2.20;2.00;;;25.30;60.70;;;;;;10488664;28;20054;-52
2022/08/24 21:11:14;;;;;;;2.55;1.92;;;25.40;60.80;;;;;;10488400;28;20028;-52
2022/08/24 21:16:15;;;;;;;2.28;2.08;;;25.30;60.70;;;;;;10488557;28;20028;-51
2022/08/24 21:21:16;;;;;;;1.88;1.73;;;25.40;60.80;;;;;;10488258;28;20032;-52
2022/08/24 21:26:24;;;;;;;4.10;2.40;;;25.40;60.90;;;;;;10488257;28;20483;-52
2022/08/24 21:31:26;;;;;;;2.78;2.53;;;25.40;60.90;;;;;;10528275;28;20035;-53
2022/08/24 21:36:30;;;;;;;2.00;1.80;;;25.30;60.90;;;;;;10494556;28;20059;-52
2022/08/24 21:41:31;;;;;;;2.30;1.77;;;25.30;60.90;;;;;;10487310;28;20097;-51
2022/08/24 21:46:36;;;;;;;2.78;2.40;;;25.40;61.00;;;;;;10488553;28;20078;-51
2022/08/24 21:51:36;;;;;;;2.70;2.08;;;25.30;61.00;;;;;;10487814;28;20032;-52
2022/08/24 21:56:38;;;;;;;2.47;2.05;;;25.30;61.10;;;;;;10488328;28;20025;-53
2022/08/24 22:01:39;;;;;;;2.28;2.08;;;25.40;61.10;;;;;;10488229;28;20035;-52
2022/08/24 22:06:40;;;;;;;2.50;2.15;;;25.30;61.10;;;;;;10470233;28;20530;-52
2022/08/24 22:11:40;;;;;;;2.10;1.90;;;25.30;61.10;;;;;;10488582;28;20074;-52
2022/08/24 22:16:43;;;;;;;2.10;1.85;;;25.30;61.20;;;;;;10488488;28;20439;-51
2022/08/24 22:21:46;;;;;;;2.15;2.03;;;25.30;61.20;;;;;;10486890;28;20033;-52
2022/08/24 22:26:46;;;;;;;1.95;1.75;;;25.30;61.20;;;;;;10487828;28;20092;-52
2022/08/24 22:31:47;;;;;;;2.85;2.38;;;25.30;61.10;;;;;;10529447;28;20545;-53
2022/08/24 22:36:48;;;;;;;2.80;2.08;;;25.30;61.20;;;;;;10488318;28;20043;-52
2022/08/24 22:41:49;;;;;;;2.42;1.88;;;25.30;61.20;;;;;;10487152;28;20056;-48
2022/08/24 22:46:58;;;;;;;2.95;2.10;;;25.30;61.30;;;;;;10487613;28;20415;-52
2022/08/24 22:51:58;;;;;;;;;;;25.30;61.20;;;;;;10487872;28;20028;-52
2022/08/24 22:57:01;;;;;;;2.10;1.75;;;25.30;61.20;;;;;;10487772;28;19916;-52
2022/08/24 23:02:12;;;;;;;2.65;1.88;;;25.30;61.20;;;;;;10487619;28;20392;-52
2022/08/24 23:07:14;;;;;;;2.72;2.20;;;25.30;61.20;;;;;;10486878;28;20403;-52
2022/08/24 23:12:21;;;;;;;2.72;1.95;;;25.30;61.20;;;;;;10487136;28;20032;-51
2022/08/24 23:17:22;;;;;;;2.35;2.03;;;25.30;61.20;;;;;;10485662;28;20024;-51
2022/08/24 23:22:23;;;;;;;2.13;1.85;;;25.30;61.30;;;;;;10486570;28;20038;-52
2022/08/24 23:27:24;;;;;;;2.22;2.03;;;25.30;61.30;;;;;;10493913;28;20028;-51
2022/08/24 23:32:26;;;;;;;2.30;2.00;;;25.30;61.30;;;;;;10525247;28;20268;-51
2022/08/24 23:37:27;;;;;;;2.85;2.30;;;25.30;61.30;;;;;;10493862;28;20077;-52
2022/08/24 23:42:28;;;;;;;2.10;1.90;;;25.30;61.40;;;;;;10493398;28;20040;-52
2022/08/24 23:47:28;;;;;;;2.70;2.20;;;25.30;61.40;;;;;;10493822;28;20032;-52
2022/08/24 23:52:29;;;;;;;2.83;2.15;;;25.30;61.40;;;;;;10493451;28;20412;-49
2022/08/24 23:57:30;;;;;;;2.30;2.10;;;25.30;61.40;;;;;;10474897;28;20021;-51
